Time;durP1;ratioP1;P1;durP2;ratioP2;P2;SDS_P1;SDS_P2;PMS_P1;PMS_P2;Temp;Humidity;BMP_temperature;BMP_pressure;BME280_temperature;BME280_humidity;BME280_pressure;Samples;Min_cycle;Max_cycle;Signal;HPM_P1;HPM_P2
2023/08/15 00:00:49;;;;;;;6.33;1.93;;;;;;;22.22;100.00;101128.13;5093864;28;20970;-70
2023/08/15 00:03:15;;;;;;;7.93;1.77;;;;;;;22.20;100.00;101120.25;5093702;28;20575;-70
2023/08/15 00:05:42;;;;;;;5.37;1.27;;;;;;;22.18;100.00;101108.78;5093423;28;20495;-70
2023/08/15 00:08:09;;;;;;;7.60;1.87;;;;;;;22.10;100.00;101090.47;5093868;28;20486;-70
2023/08/15 00:10:35;;;;;;;6.83;1.53;;;;;;;22.07;100.00;101080.16;5093692;28;20908;-70
2023/08/15 00:13:04;;;;;;;5.27;1.13;;;;;;;22.02;100.00;101080.47;5093523;28;20490;-70
2023/08/15 00:15:30;;;;;;;5.40;1.30;;;;;;;21.94;100.00;101071.25;5093413;28;20456;-70
2023/08/15 00:17:57;;;;;;;5.20;1.43;;;;;;;21.84;100.00;101058.88;5093768;28;20455;-70
2023/08/15 00:20:24;;;;;;;6.63;1.90;;;;;;;21.76;100.00;101040.59;5094000;28;20464;-70
2023/08/15 00:22:50;;;;;;;6.27;1.63;;;;;;;21.71;100.00;101040.88;5093858;28;20651;-70
2023/08/15 00:25:17;;;;;;;5.80;2.17;;;;;;;21.57;100.00;101010.31;5093847;28;20873;-71
2023/08/15 00:27:44;;;;;;;6.67;1.37;;;;;;;21.56;100.00;100994.91;5093900;28;20460;-71
2023/08/15 00:30:13;;;;;;;6.03;1.40;;;;;;;21.46;100.00;100976.22;5093926;28;20560;-72
2023/08/15 00:32:39;;;;;;;5.60;1.40;;;;;;;21.46;100.00;100962.44;5093855;28;20519;-72
2023/08/15 00:35:07;;;;;;;4.90;1.20;;;;;;;21.45;100.00;100958.09;5093347;28;20800;-72
2023/08/15 00:37:34;;;;;;;5.50;1.30;;;;;;;21.45;100.00;100958.88;5096247;28;20436;-72
2023/08/15 00:40:01;;;;;;;6.57;1.77;;;;;;;21.46;100.00;100949.44;5097862;28;20877;-72
2023/08/15 00:42:27;;;;;;;5.53;1.40;;;;;;;21.50;100.00;100961.31;5097633;28;20484;-72
2023/08/15 00:44:54;;;;;;;6.03;1.87;;;;;;;21.51;100.00;100984.97;5097321;28;22084;-72
2023/08/15 00:47:22;;;;;;;7.07;2.10;;;;;;;21.47;100.00;100997.91;5097130;28;20912;-72
2023/08/15 00:49:49;;;;;;;6.13;1.80;;;;;;;21.42;100.00;101009.22;5097295;28;21023;-72
2023/08/15 00:52:18;;;;;;;7.47;1.83;;;;;;;21.42;100.00;101025.75;5096928;28;20494;-72
2023/08/15 00:54:47;;;;;;;5.90;1.70;;;;;;;21.36;100.00;101019.75;5096859;28;20852;-71
2023/08/15 00:57:15;;;;;;;8.93;2.13;;;;;;;21.33;100.00;101028.72;5097231;28;20489;-71
2023/08/15 00:59:43;;;;;;;8.13;2.47;;;;;;;21.28;100.00;101009.69;5097115;28;20479;-71
2023/08/15 01:02:09;;;;;;;6.83;1.60;;;;;;;21.28;100.00;101003.41;5096681;28;20490;-72
2023/08/15 01:04:39;;;;;;;6.30;1.43;;;;;;;21.24;100.00;100986.78;5097013;28;20513;-72
2023/08/15 01:07:05;;;;;;;6.53;1.60;;;;;;;21.17;100.00;100992.97;5097312;28;20440;-73
2023/08/15 01:09:32;;;;;;;5.03;1.03;;;;;;;21.14;100.00;100992.88;5096703;28;20869;-73
2023/08/15 01:12:07;;;;;;;9.63;1.20;;;;;;;21.12;100.00;100992.47;5096913;28;20447;-72
2023/08/15 01:14:42;;;;;;;5.17;1.27;;;;;;;21.05;100.00;101001.38;5096606;28;20496;-73
2023/08/15 01:17:13;;;;;;;7.10;1.20;;;;;;;21.05;100.00;101006.88;5096867;28;20422;-73
2023/08/15 01:19:46;;;;;;;5.30;1.40;;;;;;;21.02;100.00;100991.06;5096722;28;20428;-72
2023/08/15 01:22:16;;;;;;;5.60;1.47;;;;;;;21.06;100.00;101000.19;5096673;28;20496;-72
2023/08/15 01:24:46;;;;;;;6.63;1.70;;;;;;;21.04;100.00;101010.00;5096320;28;20952;-72
2023/08/15 01:27:12;;;;;;;5.20;1.20;;;;;;;21.07;100.00;101017.53;5096531;28;20536;-72
2023/08/15 01:29:39;;;;;;;4.93;1.10;;;;;;;21.09;100.00;101027.03;5096492;28;20437;-72
2023/08/15 01:32:14;;;;;;;5.60;1.60;;;;;;;21.06;100.00;101027.75;5096486;28;20924;-73
2023/08/15 01:34:47;;;;;;;7.40;1.97;;;;;;;21.07;100.00;101025.78;5097666;28;20435;-75
2023/08/15 01:37:21;;;;;;;5.93;1.80;;;;;;;21.10;100.00;101020.34;5096429;28;20880;-71
2023/08/15 01:39:52;;;;;;;6.57;1.27;;;;;;;21.15;100.00;101022.03;5096466;28;20455;-72
2023/08/15 01:42:21;;;;;;;5.43;1.23;;;;;;;21.16;100.00;101012.59;5096314;28;20518;-72
2023/08/15 01:44:50;;;;;;;7.47;1.43;;;;;;;21.13;100.00;101008.63;5096206;28;20436;-72
2023/08/15 01:47:17;;;;;;;5.20;1.40;;;;;;;21.12;100.00;101011.75;5095747;28;20531;-72
2023/08/15 01:49:43;;;;;;;6.70;1.57;;;;;;;21.14;100.00;101007.47;5096287;28;20428;-72
2023/08/15 01:52:10;;;;;;;5.70;1.47;;;;;;;21.10;100.00;100997.53;5096244;28;20552;-72
2023/08/15 01:54:36;;;;;;;6.40;1.60;;;;;;;21.06;100.00;101000.19;5096371;28;20480;-72
2023/08/15 01:57:04;;;;;;;6.07;1.67;;;;;;;21.07;100.00;100998.25;5095762;28;20874;-72
2023/08/15 01:59:31;;;;;;;5.93;1.73;;;;;;;21.09;100.00;100996.75;5096288;28;20523;-72
2023/08/15 02:01:58;;;;;;;4.90;1.17;;;;;;;21.05;100.00;100984.06;5095915;28;21036;-72
2023/08/15 02:04:24;;;;;;;5.77;1.47;;;;;;;21.06;100.00;100991.16;5095956;28;20440;-72
2023/08/15 02:06:51;;;;;;;6.10;1.60;;;;;;;20.98;100.00;100978.38;5095835;28;20468;-72
2023/08/15 02:09:18;;;;;;;6.83;1.50;;;;;;;20.97;100.00;100969.31;5095890;28;20528;-73
2023/08/15 02:11:44;;;;;;;4.77;0.80;;;;;;;20.94;100.00;100974.75;5096086;28;20436;-73
2023/08/15 02:14:12;;;;;;;6.10;1.90;;;;;;;20.89;100.00;100965.66;5093200;22;20492;-72
2023/08/15 02:16:39;;;;;;;4.87;1.03;;;;;;;20.89;100.00;100965.66;5059235;28;20557;-72
2023/08/15 02:19:05;;;;;;;5.33;1.23;;;;;;;20.85;100.00;100964.78;5055433;28;20528;-72
2023/08/15 02:21:32;;;;;;;9.77;1.90;;;;;;;20.83;100.00;100967.06;5055186;28;20845;-72
2023/08/15 02:23:59;;;;;;;5.23;1.30;;;;;;;20.80;100.00;100962.28;5055243;28;20481;-72
2023/08/15 02:26:25;;;;;;;5.30;1.50;;;;;;;20.77;100.00;100960.28;5055164;28;20458;-72
2023/08/15 02:28:52;;;;;;;5.10;1.23;;;;;;;20.78;100.00;100959.09;5055187;28;20525;-72
2023/08/15 02:31:20;;;;;;;7.40;1.50;;;;;;;20.76;100.00;100950.41;5055501;28;20434;-71
2023/08/15 02:33:47;;;;;;;7.00;1.67;;;;;;;20.72;100.00;100937.72;5055181;28;20908;-71
2023/08/15 02:36:14;;;;;;;7.43;1.43;;;;;;;20.70;100.00;100934.53;5055069;28;20458;-72
2023/08/15 02:38:40;;;;;;;5.70;1.50;;;;;;;20.67;100.00;100930.53;5055150;28;20492;-72
2023/08/15 02:41:07;;;;;;;7.20;2.07;;;;;;;20.63;100.00;100935.19;5055331;28;20441;-72
2023/08/15 02:43:33;;;;;;;6.60;1.53;;;;;;;20.60;100.00;100922.94;5054908;28;20478;-72
2023/08/15 02:46:00;;;;;;;6.63;1.80;;;;;;;20.61;100.00;100920.97;5054774;28;20490;-72
2023/08/15 02:48:28;;;;;;;6.70;1.80;;;;;;;20.59;100.00;100915.84;5054616;28;20946;-72
2023/08/15 02:50:55;;;;;;;6.80;2.23;;;;;;;20.55;100.00;100919.69;5055116;28;20438;-74
2023/08/15 02:53:21;;;;;;;5.50;1.33;;;;;;;20.48;100.00;100914.81;5054731;28;20522;-72
2023/08/15 02:55:50;;;;;;;5.50;1.60;;;;;;;20.44;100.00;100913.09;5054895;28;20984;-74
2023/08/15 02:58:17;;;;;;;6.63;1.90;;;;;;;20.39;100.00;100914.19;5054633;28;20986;-72
2023/08/15 03:00:44;;;;;;;5.20;1.30;;;;;;;20.38;100.00;100915.34;5053459;28;20886;-72
2023/08/15 03:03:10;;;;;;;5.93;1.60;;;;;;;20.43;100.00;100912.31;5054516;28;20481;-72
2023/08/15 03:05:39;;;;;;;6.87;2.10;;;;;;;20.39;100.00;100908.69;5054611;28;20476;-71
2023/08/15 03:08:06;;;;;;;5.97;1.67;;;;;;;20.35;100.00;100924.31;5054544;28;20446;-71
2023/08/15 03:10:36;;;;;;;5.17;1.20;;;;;;;20.25;100.00;100914.66;5054703;28;20444;-71
2023/08/15 03:13:03;;;;;;;8.03;1.70;;;;;;;20.18;100.00;100909.00;5054438;28;20446;-71
2023/08/15 03:15:29;;;;;;;8.03;1.93;;;;;;;20.17;100.00;100910.16;5054191;28;20545;-71
2023/08/15 03:17:57;;;;;;;7.70;2.07;;;;;;;20.14;100.00;100911.69;5053849;28;20505;-73
2023/08/15 03:20:23;;;;;;;7.83;1.80;;;;;;;20.16;100.00;100914.84;5053837;28;20477;-71
2023/08/15 03:22:51;;;;;;;8.57;2.03;;;;;;;20.10;100.00;100924.56;5054306;28;20482;-71
2023/08/15 03:25:18;;;;;;;6.07;1.57;;;;;;;20.10;100.00;100938.31;5053747;28;21001;-71
2023/08/15 03:27:45;;;;;;;6.67;1.93;;;;;;;20.08;100.00;100926.84;5054154;28;20791;-71
2023/08/15 03:30:12;;;;;;;6.83;1.90;;;;;;;20.05;100.00;100937.75;5053912;28;20477;-71
2023/08/15 03:32:38;;;;;;;5.50;1.70;;;;;;;20.03;100.00;100942.84;5053703;28;20438;-71
2023/08/15 03:35:06;;;;;;;5.73;1.60;;;;;;;19.95;100.00;100947.34;5053955;28;20550;-74
2023/08/15 03:37:33;;;;;;;5.57;1.67;;;;;;;19.90;100.00;100947.63;5054082;28;20442;-71
2023/08/15 03:40:01;;;;;;;8.33;1.60;;;;;;;19.87;100.00;100940.88;5053894;28;20438;-71
2023/08/15 03:42:27;;;;;;;5.50;1.60;;;;;;;19.88;100.00;100945.25;5053793;28;20482;-71
2023/08/15 03:44:54;;;;;;;5.63;1.47;;;;;;;19.84;100.00;100954.56;5053556;28;20949;-71
2023/08/15 03:47:21;;;;;;;6.00;1.67;;;;;;;19.84;100.00;100955.34;5053837;28;20516;-71
2023/08/15 03:49:47;;;;;;;7.13;1.70;;;;;;;19.83;100.00;100953.75;5053757;28;20525;-71
2023/08/15 03:52:14;;;;;;;6.70;1.73;;;;;;;19.81;100.00;100956.06;5053419;28;20438;-73
2023/08/15 03:54:40;;;;;;;5.70;1.60;;;;;;;19.82;100.00;100963.13;5053569;28;20525;-73
2023/08/15 03:57:08;;;;;;;7.40;2.20;;;;;;;19.81;100.00;100967.03;5053356;28;21000;-73
2023/08/15 03:59:35;;;;;;;6.00;1.47;;;;;;;19.82;100.00;100976.09;5053950;28;20546;-73
2023/08/15 04:02:02;;;;;;;5.53;1.70;;;;;;;19.78;100.00;100970.50;5053535;28;20605;-73
2023/08/15 04:04:28;;;;;;;6.60;2.03;;;;;;;19.78;100.00;100987.00;5053504;28;20486;-76
2023/08/15 04:06:55;;;;;;;11.83;1.50;;;;;;;19.80;100.00;100992.94;5053578;28;20533;-75
2023/08/15 04:09:22;;;;;;;7.67;2.37;;;;;;;19.81;100.00;100997.28;5053334;28;20447;-74
2023/08/15 04:11:48;;;;;;;5.20;1.27;;;;;;;19.83;100.00;101006.00;5053232;28;20485;-74
2023/08/15 04:14:16;;;;;;;7.00;2.50;;;;;;;19.89;100.00;101001.03;5053314;28;20454;-73
2023/08/15 04:16:43;;;;;;;7.80;2.90;;;;;;;19.93;100.00;101004.66;5052979;28;20470;-73
2023/08/15 04:19:10;;;;;;;6.50;1.83;;;;;;;19.96;100.00;101017.69;5052979;28;20816;-75
2023/08/15 04:21:37;;;;;;;6.60;2.20;;;;;;;20.01;100.00;101014.69;5053208;28;20438;-73
2023/08/15 04:24:04;;;;;;;7.70;2.20;;;;;;;20.03;100.00;101017.09;5053075;28;20519;-74
2023/08/15 04:26:30;;;;;;;8.40;3.17;;;;;;;20.06;100.00;101019.13;5053009;28;21088;-74
2023/08/15 04:28:57;;;;;;;8.10;2.20;;;;;;;20.10;100.00;101022.78;5053762;28;20496;-74
2023/08/15 04:31:25;;;;;;;9.33;2.30;;;;;;;20.14;100.00;101020.88;5053464;28;20525;-75
2023/08/15 04:33:52;;;;;;;10.00;3.90;;;;;;;20.12;100.00;101015.75;5053723;28;20537;-75
2023/08/15 04:36:18;;;;;;;7.97;2.87;;;;;;;20.20;100.00;101013.19;5053161;28;20458;-74
2023/08/15 04:38:45;;;;;;;12.00;3.80;;;;;;;20.26;100.00;101009.78;5053405;28;20446;-73
2023/08/15 04:41:12;;;;;;;7.60;2.87;;;;;;;20.31;100.00;101014.22;5053105;28;20977;-73
2023/08/15 04:43:38;;;;;;;8.57;3.77;;;;;;;20.37;100.00;101019.13;5053220;28;20482;-72
2023/08/15 04:46:05;;;;;;;7.20;2.80;;;;;;;20.41;100.00;101022.75;5053264;28;20549;-72
2023/08/15 04:48:36;;;;;;;7.60;2.73;;;;;;;20.47;100.00;101020.53;5035429;28;20537;-72
2023/08/15 04:51:02;;;;;;;10.10;3.67;;;;;;;20.50;100.00;101019.03;5053210;28;20449;-72
2023/08/15 04:53:29;;;;;;;6.40;2.47;;;;;;;20.56;100.00;101017.59;5053020;28;20525;-72
2023/08/15 04:55:55;;;;;;;7.63;3.10;;;;;;;20.55;100.00;101019.56;5052952;28;20550;-72
2023/08/15 04:58:22;;;;;;;7.77;2.97;;;;;;;20.56;100.00;101020.34;5053345;28;20442;-72
2023/08/15 05:00:49;;;;;;;7.07;2.33;;;;;;;20.61;100.00;101022.81;5052711;28;20528;-72
2023/08/15 05:03:15;;;;;;;11.90;3.30;;;;;;;20.61;100.00;101020.06;5052916;28;20543;-72
2023/08/15 05:05:43;;;;;;;8.33;2.40;;;;;;;20.61;100.00;101028.34;5053244;28;20537;-72
2023/08/15 05:08:12;;;;;;;8.67;2.90;;;;;;;20.64;100.00;101027.63;5052881;28;20982;-72
2023/08/15 05:10:38;;;;;;;9.50;2.73;;;;;;;20.63;100.00;101028.78;5053206;28;20446;-72
2023/08/15 05:13:05;;;;;;;8.97;2.27;;;;;;;20.63;100.00;101020.53;5052645;28;20546;-73
2023/08/15 05:15:31;;;;;;;6.97;1.80;;;;;;;20.66;100.00;101030.81;5052815;28;20520;-73
2023/08/15 05:17:58;;;;;;;7.57;2.80;;;;;;;20.64;100.00;101022.13;5053390;28;20457;-72
2023/08/15 05:20:24;;;;;;;8.50;2.93;;;;;;;20.65;100.00;101024.50;5052961;28;20478;-73
2023/08/15 05:22:53;;;;;;;7.47;2.30;;;;;;;20.69;100.00;101027.34;5053877;28;20533;-73
2023/08/15 05:25:20;;;;;;;11.40;2.60;;;;;;;20.71;100.00;101029.72;5056294;28;20878;-73
2023/08/15 05:27:46;;;;;;;6.60;2.33;;;;;;;20.71;100.00;101027.78;5056351;28;20444;-72
2023/08/15 05:30:13;;;;;;;6.47;2.40;;;;;;;20.72;100.00;101025.81;5056648;28;20438;-72
2023/08/15 05:32:40;;;;;;;7.00;2.20;;;;;;;20.74;100.00;101026.25;5056275;28;20440;-72
2023/08/15 05:35:07;;;;;;;8.07;2.97;;;;;;;20.75;100.00;101036.13;5056467;28;20486;-72
2023/08/15 05:37:33;;;;;;;8.20;2.60;;;;;;;20.78;100.00;101044.47;5056405;28;20489;-72
2023/08/15 05:40:02;;;;;;;8.40;2.90;;;;;;;20.78;100.00;101041.72;5056434;28;20517;-72
2023/08/15 05:42:29;;;;;;;6.77;2.30;;;;;;;20.79;100.00;101042.50;5056085;28;20442;-72
2023/08/15 05:44:55;;;;;;;6.97;2.37;;;;;;;20.77;100.00;101045.63;5056224;28;20486;-73
2023/08/15 05:47:22;;;;;;;7.87;2.40;;;;;;;20.77;100.00;101044.84;5056054;28;20481;-72
2023/08/15 05:49:49;;;;;;;7.00;2.67;;;;;;;20.75;100.00;101045.16;5055909;28;20474;-72
2023/08/15 05:52:15;;;;;;;7.93;2.17;;;;;;;20.80;100.00;101044.88;5055656;28;20473;-70
2023/08/15 05:54:42;;;;;;;8.40;2.73;;;;;;;20.86;100.00;101051.72;5055445;28;20525;-72
2023/08/15 05:57:10;;;;;;;8.93;2.53;;;;;;;20.90;100.00;101052.63;5055882;28;20442;-73
2023/08/15 05:59:37;;;;;;;6.53;2.10;;;;;;;20.94;100.00;101060.97;5055780;28;20500;-73
2023/08/15 06:02:04;;;;;;;6.70;2.57;;;;;;;21.00;100.00;101051.25;5055637;28;20464;-72
2023/08/15 06:04:30;;;;;;;6.30;2.00;;;;;;;21.03;100.00;101055.22;5055248;28;21056;-72
2023/08/15 06:06:57;;;;;;;6.30;1.97;;;;;;;21.05;100.00;101050.97;5055416;28;20852;-72
2023/08/15 06:09:24;;;;;;;7.80;2.50;;;;;;;21.08;100.00;101054.97;5055545;28;20536;-71
2023/08/15 06:11:50;;;;;;;6.80;2.80;;;;;;;21.09;100.00;101048.28;5055808;28;20525;-71
2023/08/15 06:14:20;;;;;;;7.00;2.07;;;;;;;21.10;100.00;101052.63;5055453;28;20442;-72
2023/08/15 06:16:46;;;;;;;7.83;1.97;;;;;;;21.19;100.00;101052.41;5055008;28;21030;-72
2023/08/15 06:19:13;;;;;;;7.37;2.53;;;;;;;21.22;100.00;101043.44;5055663;28;20441;-72
2023/08/15 06:21:41;;;;;;;6.23;2.07;;;;;;;21.22;100.00;101048.94;5055576;28;20438;-71
2023/08/15 06:24:08;;;;;;;6.87;1.93;;;;;;;21.25;100.00;101042.69;5055218;28;20486;-73
2023/08/15 06:26:35;;;;;;;6.27;2.00;;;;;;;21.29;100.00;101049.88;5055163;28;20549;-73
2023/08/15 06:29:01;;;;;;;7.70;2.23;;;;;;;21.25;100.00;101043.53;5055536;28;20525;-73
2023/08/15 06:31:29;;;;;;;9.50;2.00;;;;;;;21.30;100.00;101051.50;5055672;28;20467;-73
2023/08/15 06:33:56;;;;;;;6.53;2.50;;;;;;;21.34;100.00;101052.41;5054993;28;20521;-72
2023/08/15 06:36:23;;;;;;;7.43;2.27;;;;;;;21.36;100.00;101054.78;5055176;28;20466;-72
2023/08/15 06:38:50;;;;;;;6.90;2.00;;;;;;;21.38;100.00;101056.03;5055248;28;20533;-73
2023/08/15 06:41:17;;;;;;;6.77;2.30;;;;;;;21.45;100.00;101055.34;5055124;28;20446;-73
2023/08/15 06:43:44;;;;;;;6.53;2.20;;;;;;;21.48;100.00;101056.59;5054805;28;20482;-73
2023/08/15 06:46:11;;;;;;;6.83;2.63;;;;;;;21.51;100.00;101055.84;5054423;28;21092;-73
2023/08/15 06:48:40;;;;;;;6.33;2.00;;;;;;;21.62;100.00;101065.94;5054987;28;20522;-73
2023/08/15 06:51:06;;;;;;;8.80;1.83;;;;;;;21.70;100.00;101058.59;5055009;28;20442;-73
2023/08/15 06:53:33;;;;;;;13.53;2.87;;;;;;;21.77;100.00;101069.75;5054847;28;20796;-74
2023/08/15 06:56:00;;;;;;;7.57;2.47;;;;;;;21.80;100.00;101069.03;5054923;28;20454;-75
2023/08/15 06:58:27;;;;;;;6.40;2.03;;;;;;;21.89;100.00;101060.53;5054654;28;20434;-74
2023/08/15 07:00:55;;;;;;;14.77;2.73;;;;;;;21.96;100.00;101054.31;5054275;28;20922;-73
2023/08/15 07:03:21;;;;;;;9.57;2.80;;;;;;;22.04;100.00;101056.03;5054421;28;20517;-74
2023/08/15 07:05:49;;;;;;;6.63;2.40;;;;;;;22.10;100.00;101063.66;5054741;28;20466;-74
2023/08/15 07:08:17;;;;;;;7.27;2.23;;;;;;;22.13;100.00;101062.16;5054564;28;20439;-74
2023/08/15 07:10:44;;;;;;;6.97;2.27;;;;;;;22.20;100.00;101054.00;5054468;28;20446;-74
2023/08/15 07:13:11;;;;;;;7.27;2.20;;;;;;;22.25;100.00;101050.94;5054236;28;20454;-73
2023/08/15 07:15:38;;;;;;;6.80;2.23;;;;;;;22.29;100.00;101054.53;5054503;28;20839;-74
2023/08/15 07:18:05;;;;;;;6.70;2.70;;;;;;;22.43;100.00;101051.22;5054400;28;20545;-75
2023/08/15 07:20:32;;;;;;;7.87;2.30;;;;;;;22.52;100.00;101048.19;5054448;28;20438;-74
2023/08/15 07:23:00;;;;;;;7.27;2.23;;;;;;;22.56;100.00;101054.56;5053857;28;20442;-74
2023/08/15 07:25:27;;;;;;;8.90;2.90;;;;;;;22.58;100.00;101061.31;5054046;28;20863;-74
2023/08/15 07:27:53;;;;;;;9.27;3.70;;;;;;;22.65;100.00;101064.19;5053892;28;20484;-74
2023/08/15 07:30:20;;;;;;;8.30;3.27;;;;;;;22.74;100.00;101072.19;5053755;28;20481;-74
2023/08/15 07:32:47;;;;;;;6.33;2.30;;;;;;;22.77;100.00;101071.47;5054061;28;20450;-74
2023/08/15 07:35:13;;;;;;;6.63;2.57;;;;;;;22.85;100.00;101072.38;5053533;28;20549;-74
2023/08/15 07:37:40;;;;;;;6.10;2.10;;;;;;;22.87;100.00;101064.50;5054256;28;20446;-75
2023/08/15 07:40:11;;;;;;;8.33;2.53;;;;;;;22.97;100.00;101054.78;5053731;28;20477;-74
2023/08/15 07:42:37;;;;;;;7.03;2.40;;;;;;;23.01;100.00;101053.66;5053927;28;20499;-74
2023/08/15 07:45:05;;;;;;;8.93;1.67;;;;;;;23.09;100.00;101071.16;5053141;28;20486;-74
2023/08/15 07:47:34;;;;;;;8.10;2.83;;;;;;;23.07;100.00;101067.97;5053777;28;20445;-72
2023/08/15 07:50:15;;;;;;;7.43;2.30;;;;;;;23.18;100.00;101063.38;5053770;28;20473;-75
2023/08/15 07:52:43;;;;;;;6.07;2.00;;;;;;;23.25;100.00;101051.63;5053787;28;20461;-74
2023/08/15 07:55:11;;;;;;;6.53;2.13;;;;;;;23.36;100.00;101063.59;5053584;28;20860;-71
2023/08/15 07:57:38;;;;;;;6.30;1.60;;;;;;;23.46;100.00;101056.59;5054262;28;20516;-73
2023/08/15 08:00:06;;;;;;;6.17;2.00;;;;;;;23.54;100.00;101078.41;5053594;28;20445;-73
2023/08/15 08:02:33;;;;;;;6.50;2.07;;;;;;;23.65;100.00;101086.88;5053529;28;20495;-73
2023/08/15 08:05:00;;;;;;;6.03;1.73;;;;;;;23.69;100.00;101092.47;5053397;28;20569;-73
2023/08/15 08:07:27;;;;;;;7.63;2.27;;;;;;;23.78;100.00;101091.00;5053538;28;20442;-73
2023/08/15 08:09:53;;;;;;;5.63;2.00;;;;;;;23.86;100.00;101095.44;5053482;28;20792;-73
2023/08/15 08:14:58;;;;;;;7.20;2.40;;;;;;;24.06;100.00;101096.00;5031635;28;20501;-70
2023/08/15 08:17:25;;;;;;;5.80;1.80;;;;;;;24.11;100.00;101097.63;5033860;28;20501;-70
2023/08/15 08:19:52;;;;;;;5.90;1.77;;;;;;;24.11;100.00;101092.09;5033304;28;20515;-70
2023/08/15 08:22:18;;;;;;;7.80;2.73;;;;;;;24.09;100.00;101092.50;5033647;28;20443;-70
2023/08/15 08:24:45;;;;;;;6.10;1.80;;;;;;;24.14;100.00;101092.13;5033825;28;20572;-70
2023/08/15 08:27:12;;;;;;;6.87;2.27;;;;;;;24.26;100.00;101093.00;5033880;28;20460;-70
2023/08/15 08:29:39;;;;;;;5.70;1.80;;;;;;;24.32;100.00;101097.84;5033134;28;20860;-70
2023/08/15 08:32:07;;;;;;;6.77;2.10;;;;;;;24.35;98.96;101097.09;5033451;28;20526;-69
2023/08/15 08:34:33;;;;;;;6.33;2.40;;;;;;;24.47;100.00;101086.91;5033416;28;20450;-69
2023/08/15 08:37:00;;;;;;;7.03;2.10;;;;;;;24.58;98.65;101096.91;5033601;28;20435;-69
2023/08/15 08:39:27;;;;;;;6.90;2.03;;;;;;;24.70;97.56;101111.59;5033539;28;20448;-70
2023/08/15 08:41:53;;;;;;;6.77;2.37;;;;;;;24.82;97.28;101114.88;5032998;28;20449;-69
2023/08/15 08:44:21;;;;;;;5.80;1.87;;;;;;;24.98;98.04;101117.34;5033715;28;20483;-70
2023/08/15 08:46:48;;;;;;;5.60;1.50;;;;;;;25.04;97.47;101110.25;5032890;28;20461;-70
2023/08/15 08:49:17;;;;;;;7.30;2.17;;;;;;;25.10;98.02;101116.25;5033530;28;20858;-69
2023/08/15 08:51:45;;;;;;;6.87;2.47;;;;;;;25.17;95.57;101116.31;5033232;28;20534;-69
2023/08/15 08:54:11;;;;;;;9.13;2.70;;;;;;;25.22;97.47;101129.78;5032991;28;20439;-70
2023/08/15 08:56:43;;;;;;;6.40;2.27;;;;;;;25.32;94.78;101120.75;5033693;28;20537;-69
2023/08/15 08:59:12;;;;;;;6.80;2.70;;;;;;;25.43;94.30;101126.34;5036528;28;20430;-69
2023/08/15 09:01:40;;;;;;;6.50;2.40;;;;;;;25.53;91.19;101138.66;5037489;28;20447;-69
2023/08/15 09:04:06;;;;;;;5.70;1.97;;;;;;;25.66;92.96;101143.47;5036805;28;20542;-69
2023/08/15 09:06:35;;;;;;;7.13;2.60;;;;;;;25.81;91.40;101154.66;5037031;28;20541;-69
2023/08/15 09:09:01;;;;;;;6.20;2.37;;;;;;;26.10;90.82;101164.66;5036873;28;20999;-69
2023/08/15 09:11:34;;;;;;;9.13;2.80;;;;;;;26.34;88.13;101159.53;5036581;28;20482;-69
2023/08/15 09:14:25;;;;;;;7.40;2.57;;;;;;;26.51;88.04;101150.44;5037103;28;20800;-69
2023/08/15 09:16:51;;;;;;;6.13;2.00;;;;;;;26.56;87.50;101152.84;5032520;28;20486;-69
2023/08/15 09:19:18;;;;;;;6.37;2.23;;;;;;;26.58;90.18;101149.66;5036595;28;20439;-69
2023/08/15 09:21:46;;;;;;;7.30;2.37;;;;;;;26.59;88.47;101145.69;5036633;28;20986;-69
2023/08/15 09:24:13;;;;;;;7.50;2.43;;;;;;;26.56;87.63;101135.38;5037170;28;20446;-69
2023/08/15 09:26:40;;;;;;;6.90;2.00;;;;;;;26.49;87.31;101130.63;5036749;28;20467;-69
2023/08/15 09:29:07;;;;;;;7.23;3.00;;;;;;;26.65;87.96;101128.25;5036759;28;20442;-69
2023/08/15 09:31:34;;;;;;;6.53;2.47;;;;;;;26.81;85.46;101124.25;5036758;28;20497;-69
2023/08/15 09:34:01;;;;;;;5.50;1.80;;;;;;;27.01;87.18;101117.06;5036778;28;20497;-69
2023/08/15 09:36:28;;;;;;;6.67;2.40;;;;;;;27.11;87.91;101109.91;5036311;28;20454;-69
2023/08/15 09:39:00;;;;;;;7.63;2.00;;;;;;;27.27;83.95;101110.28;5036763;28;20474;-70
2023/08/15 09:41:27;;;;;;;8.23;3.13;;;;;;;27.32;82.73;101109.84;5036255;28;20424;-70
2023/08/15 09:43:55;;;;;;;6.10;2.60;;;;;;;27.35;82.94;101117.38;5036180;28;20447;-70
2023/08/15 09:46:22;;;;;;;8.43;2.67;;;;;;;27.47;82.73;101113.34;5035916;28;20522;-70
2023/08/15 09:48:52;;;;;;;7.40;2.50;;;;;;;27.52;83.52;101120.50;5036137;28;20439;-70
2023/08/15 09:51:19;;;;;;;6.00;2.03;;;;;;;27.64;83.75;101115.25;5036103;28;20470;-70
2023/08/15 09:53:47;;;;;;;6.40;2.30;;;;;;;27.57;84.47;101089.44;5036033;28;20525;-70
2023/08/15 09:56:16;;;;;;;6.33;2.60;;;;;;;27.55;84.26;101100.22;5035857;28;20459;-70
2023/08/15 09:58:43;;;;;;;6.63;2.23;;;;;;;27.39;83.08;101097.88;5035947;28;20447;-70
2023/08/15 10:01:13;;;;;;;7.20;3.30;;;;;;;27.38;82.20;101110.22;5036015;28;20439;-70
2023/08/15 10:03:41;;;;;;;6.63;2.50;;;;;;;27.34;82.04;101106.66;5035857;28;20471;-70
2023/08/15 10:06:10;;;;;;;6.07;2.07;;;;;;;27.46;83.11;101094.28;5035660;28;20519;-70
2023/08/15 10:08:38;;;;;;;6.20;2.23;;;;;;;27.44;86.78;101088.31;5035628;28;20443;-70
2023/08/15 10:11:08;;;;;;;6.30;1.90;;;;;;;27.46;86.37;101102.63;5035628;28;20435;-70
2023/08/15 10:13:37;;;;;;;8.33;2.90;;;;;;;27.31;84.00;101097.09;5035355;28;20833;-70
2023/08/15 10:16:07;;;;;;;8.30;3.47;;;;;;;27.26;83.60;101088.41;5035698;28;20558;-70
2023/08/15 10:18:34;;;;;;;6.00;2.27;;;;;;;27.30;87.26;101078.03;5035213;28;20471;-70
2023/08/15 10:21:02;;;;;;;7.53;2.80;;;;;;;27.28;89.36;101070.13;5035752;28;20442;-70
2023/08/15 10:23:30;;;;;;;6.83;2.87;;;;;;;27.11;86.02;101059.84;5035391;28;20493;-70
2023/08/15 10:25:57;;;;;;;7.03;2.30;;;;;;;27.24;84.86;101049.06;5035216;28;20922;-70
2023/08/15 10:28:24;;;;;;;6.60;3.00;;;;;;;27.36;86.21;101043.84;5035333;28;20824;-70
2023/08/15 10:30:52;;;;;;;8.70;3.00;;;;;;;27.47;87.38;101031.88;5035113;28;21009;-70
2023/08/15 10:33:20;;;;;;;8.13;2.90;;;;;;;27.49;88.56;101032.22;5034885;28;20935;-70
2023/08/15 10:36:06;;;;;;;6.40;2.63;;;;;;;27.55;88.09;101033.41;5034729;28;20798;-70
2023/08/15 10:38:36;;;;;;;7.17;2.60;;;;;;;27.65;87.84;101046.47;5034769;28;21010;-70
2023/08/15 10:41:05;;;;;;;7.03;2.60;;;;;;;27.72;87.17;101052.03;5035347;28;20474;-70
2023/08/15 10:43:34;;;;;;;6.53;2.80;;;;;;;27.82;85.35;101053.94;5034563;28;20527;-70
2023/08/15 10:46:04;;;;;;;10.10;3.50;;;;;;;27.90;84.25;101055.47;5034408;28;20573;-70
2023/08/15 10:48:49;;;;;;;7.57;3.13;;;;;;;27.91;82.44;101068.19;5034550;28;20954;-70
2023/08/15 10:51:17;;;;;;;8.30;2.57;;;;;;;27.99;85.27;101068.94;5034451;28;20859;-70
2023/08/15 10:53:44;;;;;;;7.40;2.80;;;;;;;28.10;86.15;101060.50;5035105;28;20438;-70
2023/08/15 10:56:12;;;;;;;7.27;3.33;;;;;;;28.13;82.43;101073.63;5034673;28;20459;-70
2023/08/15 10:58:39;;;;;;;8.07;2.90;;;;;;;28.20;82.42;101081.13;5034390;28;20489;-70
2023/08/15 11:01:07;;;;;;;8.37;3.80;;;;;;;28.30;82.42;101075.47;5034552;28;21015;-71
2023/08/15 11:03:35;;;;;;;6.37;2.50;;;;;;;28.43;83.38;101072.22;5034290;28;20531;-73
2023/08/15 11:06:09;;;;;;;7.00;2.93;;;;;;;28.43;82.61;101069.44;5034379;28;20483;-73
2023/08/15 11:08:41;;;;;;;8.10;3.90;;;;;;;28.40;81.15;101080.19;5034833;28;20538;-70
2023/08/15 11:11:08;;;;;;;8.73;3.80;;;;;;;28.35;81.48;101079.84;5034521;28;20466;-70
2023/08/15 11:13:37;;;;;;;9.70;2.97;;;;;;;28.44;83.85;101080.16;5034138;28;20465;-70
2023/08/15 11:16:04;;;;;;;8.67;3.57;;;;;;;28.70;79.88;101078.72;5034374;28;20547;-70
2023/08/15 11:18:32;;;;;;;6.90;3.00;;;;;;;28.92;79.32;101079.28;5034530;28;20431;-70
2023/08/15 11:21:00;;;;;;;7.03;2.73;;;;;;;29.04;74.15;101089.13;5033619;28;20827;-70
2023/08/15 11:23:28;;;;;;;9.13;3.07;;;;;;;29.68;76.22;101079.22;5034291;28;20443;-70